Time;durP1;ratioP1;P1;durP2;ratioP2;P2;SDS_P1;SDS_P2;PMS_P1;PMS_P2;Temp;Humidity;BMP_temperature;BMP_pressure;BME280_temperature;BME280_humidity;BME280_pressure;Samples;Min_cycle;Max_cycle;Signal;HPM_P1;HPM_P2
2023/07/16 00:01:21;;;;;;;;;;;22.60;72.80;;;21.95;66.56;96483.63;5053960;28;20208;-84
2023/07/16 00:03:49;;;;;;;;;;;22.60;72.80;;;21.95;66.73;96476.09;5074410;28;19927;-84
2023/07/16 00:06:17;;;;;;;;;;;22.60;72.90;;;21.96;66.37;96490.84;5056399;28;19921;-84
2023/07/16 00:08:46;;;;;;;;;;;22.60;72.80;;;21.96;66.52;96488.06;5073175;28;19920;-84
2023/07/16 00:11:14;;;;;;;;;;;22.60;72.80;;;21.95;66.32;96483.63;5055466;28;20212;-84
2023/07/16 00:13:45;;;;;;;;;;;22.60;72.80;;;21.96;66.57;96494.47;5039516;28;19920;-84
2023/07/16 00:16:13;;;;;;;;;;;22.60;72.70;;;21.96;66.35;96488.06;5039330;28;19921;-84
2023/07/16 00:18:42;;;;;;;;;;;22.60;72.70;;;21.95;66.39;96486.44;5056112;28;19927;-84
2023/07/16 00:21:10;;;;;;;;;;;22.60;72.70;;;21.95;66.13;96487.25;5038738;28;19920;-84
2023/07/16 00:23:38;;;;;;;;;;;22.60;72.60;;;21.94;66.36;96488.41;5072741;28;19921;-84
2023/07/16 00:26:07;;;;;;;;;;;22.60;72.60;;;21.95;66.37;96489.22;5056006;28;19920;-85
2023/07/16 00:28:35;;;;;;;;;;;22.60;72.70;;;21.93;66.54;96484.00;5055900;28;19927;-84
2023/07/16 00:31:03;;;;;;;;;;;22.60;72.70;;;21.93;66.63;96486.78;5073020;28;20215;-85
2023/07/16 00:33:30;;;;;;;;;;;22.60;72.60;;;21.92;66.23;96477.63;5055928;28;19920;-84
2023/07/16 00:35:58;;;;;;;;;;;22.60;72.60;;;21.91;66.38;96480.72;5055440;28;19920;-83
2023/07/16 00:38:26;;;;;;;;;;;22.60;72.60;;;21.91;66.50;96487.13;5039201;28;19920;-84
2023/07/16 00:40:54;;;;;;;;;;;22.50;72.60;;;21.91;66.34;96484.34;5054780;28;20297;-84
2023/07/16 00:43:23;;;;;;;;;;;22.50;72.50;;;21.90;66.42;96485.50;5039046;28;19920;-84
2023/07/16 00:45:51;;;;;;;;;;;22.50;72.50;;;21.90;66.48;96479.91;5055711;28;19920;-84
2023/07/16 00:48:19;;;;;;;;;;;22.50;72.50;;;21.89;66.28;96478.28;5073446;28;19927;-84
2023/07/16 00:50:47;;;;;;;;;;;22.50;72.50;;;21.90;66.60;96473.50;5072573;28;19927;-84
2023/07/16 00:53:15;;;;;;;;;;;22.50;72.60;;;21.89;66.58;96464.34;5038810;28;19926;-84
2023/07/16 00:55:43;;;;;;;;;;;22.50;72.40;;;21.89;66.37;96469.09;5055498;28;19935;-84
2023/07/16 00:58:11;;;;;;;;;;;22.50;72.40;;;21.88;66.04;96473.06;5038800;28;19920;-84
2023/07/16 01:00:40;;;;;;;;;;;22.50;72.30;;;21.87;65.96;96463.06;5038062;28;19921;-84
2023/07/16 01:03:10;;;;;;;;;;;22.50;72.30;;;21.85;66.39;96459.78;5055245;28;20205;-84
2023/07/16 01:05:39;;;;;;;;;;;22.50;72.40;;;21.84;65.98;96463.72;5055392;28;19927;-84
2023/07/16 01:08:09;;;;;;;;;;;22.50;72.30;;;21.83;66.16;96459.31;5038635;28;19921;-84
2023/07/16 01:10:37;;;;;;;;;;;22.50;72.20;;;21.83;66.01;96464.88;5054285;28;20220;-84
2023/07/16 01:13:05;;;;;;;;;;;22.50;72.20;;;21.82;66.10;96469.63;5072957;28;19921;-84
2023/07/16 01:15:33;;;;;;;;;;;22.50;72.20;;;21.81;65.71;96469.97;5055170;28;19926;-84
2023/07/16 01:18:04;;;;;;;;;;;22.40;71.90;;;21.80;65.58;96465.53;5038134;28;19920;-84
2023/07/16 01:20:32;;;;;;;;;;;22.40;71.90;;;21.77;65.87;96470.63;5054351;28;20119;-84
2023/07/16 01:23:14;;;;;;;;;;;22.40;72.00;;;21.79;65.80;96470.31;5071606;28;19920;-84
2023/07/16 01:26:06;;;;;;;;;;;22.40;72.00;;;21.75;65.86;96464.59;5055009;28;20313;-84
2023/07/16 01:28:50;;;;;;;;;;;22.40;72.00;;;21.76;65.99;96473.78;5017478;28;19921;-84
2023/07/16 01:31:21;;;;;;;;;;;22.40;72.10;;;21.77;65.97;96475.41;5054133;28;19920;-84
2023/07/16 01:33:50;;;;;;;;;;;22.40;72.00;;;21.77;65.82;96464.25;5054709;28;19927;-84
2023/07/16 01:36:18;;;;;;;;;;;22.40;72.00;;;21.76;65.83;96462.63;5054749;28;19927;-83
2023/07/16 01:38:46;;;;;;;;;;;22.40;72.00;;;21.75;65.83;96459.00;5054643;28;19927;-84
2023/07/16 01:41:14;;;;;;;;;;;22.40;72.00;;;21.76;66.20;96465.41;5037382;28;19931;-84
2023/07/16 01:43:42;;;;;;;;;;;22.40;72.20;;;21.76;66.13;96462.63;5038060;28;20212;-83
2023/07/16 01:46:10;;;;;;;;;;;22.40;72.20;;;21.75;66.10;96461.78;5054612;28;19920;-84
2023/07/16 01:48:39;;;;;;;;;;;22.40;72.10;;;21.74;65.99;96460.19;5038005;28;19921;-84
2023/07/16 01:51:06;;;;;;;;;;;22.40;71.90;;;21.75;65.90;96461.00;5037205;28;19921;-84
2023/07/16 01:53:34;;;;;;;;;;;22.40;71.90;;;21.74;65.75;96457.41;5037588;28;20118;-84
2023/07/16 01:56:05;;;;;;;;;;;22.40;71.90;;;21.73;65.83;96455.75;5072224;28;19921;-84
2023/07/16 01:58:33;;;;;;;;;;;22.40;71.90;;;21.73;65.99;96447.41;5070878;28;19927;-84
2023/07/16 02:01:00;;;;;;;;;;;22.40;71.80;;;21.71;65.73;96458.06;5071508;28;19927;-83
2023/07/16 02:03:28;;;;;;;;;;;22.40;71.70;;;21.69;65.69;96446.44;5054275;28;20113;-84
2023/07/16 02:05:58;;;;;;;;;;;22.40;71.60;;;21.68;65.59;96450.38;5037637;28;19920;-84
2023/07/16 02:08:25;;;;;;;;;;;22.30;71.70;;;21.68;65.52;96455.94;5054300;28;19921;-84
2023/07/16 02:10:53;;;;;;;;;;;22.30;71.70;;;21.67;65.61;96454.31;5036943;28;20212;-84
2023/07/16 02:13:21;;;;;;;;;;;22.30;71.60;;;21.67;65.71;96453.50;5054163;28;19920;-84
2023/07/16 02:15:49;;;;;;;;;;;22.30;71.70;;;21.67;65.61;96457.09;5054022;28;19920;-84
2023/07/16 02:18:17;;;;;;;;;;;22.30;71.90;;;21.67;65.54;96448.75;5071650;28;19921;-84
2023/07/16 02:20:45;;;;;;;;;;;22.30;71.80;;;21.66;65.53;96449.91;5036346;28;19920;-84
2023/07/16 02:23:14;;;;;;;;;;;22.30;71.70;;;21.66;65.46;96449.91;5053776;28;19955;-84
2023/07/16 02:25:42;;;;;;;;;;;22.30;71.60;;;21.64;65.40;96452.19;5054136;28;20119;-83
2023/07/16 02:28:10;;;;;;;;;;;22.30;71.60;;;21.63;65.68;96450.56;5053796;28;19927;-83
2023/07/16 02:30:38;;;;;;;;;;;22.30;71.60;;;21.64;65.58;96451.41;5036549;28;19927;-83
2023/07/16 02:33:06;;;;;;;;;;;22.30;71.60;;;21.64;65.47;96454.97;5053935;28;19920;-83
2023/07/16 02:35:33;;;;;;;;;;;22.30;71.70;;;21.63;65.56;96453.34;5037301;28;19921;-83
2023/07/16 02:38:01;;;;;;;;;;;22.30;71.60;;;21.63;65.72;96453.34;5070404;28;19920;-84
2023/07/16 02:40:31;;;;;;;;;;;22.30;71.60;;;21.63;65.52;96453.34;5053109;28;20212;-84
2023/07/16 02:42:58;;;;;;;;;;;22.30;71.80;;;21.63;65.82;96452.53;5053700;28;19920;-84
2023/07/16 02:45:26;;;;;;;;;;;22.30;71.90;;;21.63;65.76;96453.34;5037032;28;19927;-84
2023/07/16 02:47:54;;;;;;;;;;;22.30;71.80;;;21.63;65.43;96461.69;5036951;28;19921;-84
2023/07/16 02:50:22;;;;;;;;;;;22.30;71.60;;;21.61;65.11;96455.69;5036210;28;19920;-84
2023/07/16 02:52:50;;;;;;;;;;;22.30;71.50;;;21.60;65.22;96459.63;5053523;28;19938;-83
2023/07/16 02:55:18;;;;;;;;;;;22.30;71.70;;;21.61;65.54;96461.25;5037001;28;19920;-84
2023/07/16 02:57:47;;;;;;;;;;;22.30;71.60;;;21.59;65.28;96456.00;5046203;28;19920;-84
2023/07/16 03:00:15;;;;;;;;;;;22.30;71.40;;;21.59;65.15;96457.94;5032023;28;19920;-83
2023/07/16 03:02:43;;;;;;;;;;;22.20;71.20;;;21.58;65.49;96461.88;5032568;28;20349;-83
2023/07/16 03:05:11;;;;;;;;;;;22.20;71.30;;;21.58;65.24;96462.69;5017214;28;19921;-84
2023/07/16 03:07:39;;;;;;;;;;;22.20;71.30;;;21.57;65.12;96455.47;5016961;28;19921;-84
2023/07/16 03:10:07;;;;;;;;;;;22.20;71.20;;;21.58;65.17;96464.66;5016372;28;20213;-84
2023/07/16 03:12:35;;;;;;;;;;;22.20;71.20;;;21.57;65.01;96460.25;5049920;28;19932;-84
2023/07/16 03:15:06;;;;;;;;;;;22.20;71.20;;;21.56;65.29;96458.63;5033546;28;20116;-84
2023/07/16 03:17:34;;;;;;;;;;;22.20;71.10;;;21.56;65.07;96470.56;5016800;28;20097;-84
2023/07/16 03:20:03;;;;;;;;;;;22.20;71.10;;;21.56;65.13;96458.63;5016349;28;19927;-84
2023/07/16 03:22:31;;;;;;;;;;;22.20;71.90;;;21.55;64.94;96465.34;5016889;28;19927;-84
2023/07/16 03:24:59;;;;;;;;;;;22.20;71.10;;;21.55;65.01;96463.38;5033083;28;20123;-84
2023/07/16 03:27:27;;;;;;;;;;;22.20;71.10;;;21.56;65.02;96458.63;5049718;28;19921;-84
2023/07/16 03:30:00;;;;;;;;;;;22.20;71.00;;;21.55;64.94;96462.53;5015915;28;19920;-84
2023/07/16 03:32:29;;;;;;;;;;;22.20;71.00;;;21.54;64.99;96467.31;5018664;28;19924;-84
2023/07/16 03:34:57;;;;;;;;;;;22.20;70.90;;;21.55;65.02;96468.13;5036504;28;20112;-83
2023/07/16 03:37:26;;;;;;;;;;;22.20;71.10;;;21.55;65.04;96463.38;5020084;28;19921;-84
2023/07/16 03:39:54;;;;;;;;;;;22.20;71.00;;;21.56;65.04;96470.56;5019352;28;19921;-84
2023/07/16 03:42:22;;;;;;;;;;;22.20;70.90;;;21.57;64.99;96474.19;5020027;28;19921;-84
2023/07/16 03:44:51;;;;;;;;;;;22.20;70.90;;;21.58;65.16;96478.59;5020039;28;19927;-83
2023/07/16 03:47:20;;;;;;;;;;;22.20;71.00;;;21.58;65.11;96475.81;5036575;28;19921;-83
2023/07/16 03:49:50;;;;;;;;;;;22.20;70.90;;;21.59;65.05;96480.22;5019350;28;20234;-83
2023/07/16 03:52:18;;;;;;;;;;;22.20;71.10;;;21.59;65.17;96477.44;5036574;28;19927;-84
2023/07/16 03:54:46;;;;;;;;;;;22.20;71.10;;;21.59;65.30;96480.22;5019827;28;19920;-84
2023/07/16 03:57:14;;;;;;;;;;;22.20;71.10;;;21.60;64.96;96479.13;5052905;28;19921;-83
2023/07/16 03:59:43;;;;;;;;;;;22.20;71.20;;;21.60;65.31;96476.31;5035639;28;19970;-84
2023/07/16 04:02:11;;;;;;;;;;;22.30;71.30;;;21.61;65.59;96480.75;5053916;28;19928;-83
2023/07/16 04:04:39;;;;;;;;;;;22.30;71.40;;;21.61;65.58;96483.53;5019637;28;19947;-84
2023/07/16 04:07:08;;;;;;;;;;;22.30;71.50;;;21.60;65.71;96487.47;5019576;28;19929;-83
2023/07/16 04:09:38;;;;;;;;;;;22.30;71.70;;;21.59;65.47;96488.59;5019110;28;19927;-84
2023/07/16 04:12:07;;;;;;;;;;;22.30;71.70;;;21.59;65.72;96486.63;5052618;28;19921;-84
2023/07/16 04:14:35;;;;;;;;;;;22.30;71.80;;;21.62;65.68;96490.75;5019523;28;20117;-84
2023/07/16 04:17:03;;;;;;;;;;;22.30;71.90;;;21.64;65.94;96484.81;5019642;28;19927;-84
2023/07/16 04:19:31;;;;;;;;;;;22.30;71.90;;;21.64;65.77;96482.84;5035536;28;19991;-85
2023/07/16 04:21:58;;;;;;;;;;;22.30;72.10;;;21.65;65.92;96489.25;5036062;28;19921;-84
2023/07/16 04:24:28;;;;;;;;;;;22.30;72.20;;;21.65;66.13;96484.47;5019439;28;19920;-84
2023/07/16 04:26:56;;;;;;;;;;;22.30;72.20;;;21.67;66.29;96489.72;5036074;28;20230;-84
2023/07/16 04:29:23;;;;;;;;;;;22.30;72.40;;;21.68;66.24;96492.16;5036018;28;19921;-84
2023/07/16 04:31:51;;;;;;;;;;;22.30;72.60;;;21.71;66.02;96488.72;5018919;28;20093;-84
2023/07/16 04:34:19;;;;;;;;;;;22.30;72.50;;;21.74;66.26;96490.00;5053622;28;19979;-84
2023/07/16 04:36:47;;;;;;;;;;;22.30;72.70;;;21.75;66.64;96489.66;5019267;28;19920;-84
2023/07/16 04:39:15;;;;;;;;;;;22.30;73.10;;;21.77;66.98;96492.94;5035745;28;19943;-84
2023/07/16 04:41:44;;;;;;;;;;;22.40;73.30;;;21.82;66.97;96493.91;5035139;28;19920;-84
2023/07/16 04:44:12;;;;;;;;;;;22.40;73.40;;;21.85;66.80;96493.22;5052131;28;19921;-83
2023/07/16 04:46:40;;;;;;;;;;;22.40;73.20;;;21.87;67.21;96491.72;5019384;28;20212;-84
2023/07/16 04:49:07;;;;;;;;;;;22.50;73.80;;;21.92;67.24;96493.50;5035622;28;19920;-83
2023/07/16 04:51:35;;;;;;;;;;;22.50;73.90;;;21.96;66.77;96483.31;5052795;28;19921;-84
2023/07/16 04:54:03;;;;;;;;;;;22.60;73.40;;;22.00;67.14;96489.88;5053173;28;20112;-84
2023/07/16 04:56:31;;;;;;;;;;;22.60;73.60;;;22.03;67.01;96489.16;5035653;28;19943;-84
2023/07/16 04:59:00;;;;;;;;;;;22.60;73.40;;;22.07;67.02;96484.56;5035393;28;20212;-84
2023/07/16 05:01:28;;;;;;;;;;;22.70;73.60;;;22.13;66.94;96493.53;5018505;28;19920;-84
2023/07/16 05:03:56;;;;;;;;;;;22.70;73.40;;;22.17;66.90;96496.44;5019172;28;19921;-84
2023/07/16 05:06:24;;;;;;;;;;;22.80;73.50;;;22.20;66.81;96493.78;5052062;28;19928;-84
2023/07/16 05:08:52;;;;;;;;;;;22.80;73.40;;;22.24;66.95;96496.75;5052824;28;20120;-83
2023/07/16 05:11:20;;;;;;;;;;;22.80;73.50;;;22.27;67.10;96493.25;5052051;28;19920;-83
2023/07/16 05:13:48;;;;;;;;;;;22.90;73.30;;;22.30;66.91;96492.56;5052703;28;19927;-83
2023/07/16 05:16:17;;;;;;;;;;;22.90;73.40;;;22.32;67.00;96495.84;5052592;28;19921;-83
2023/07/16 05:18:45;;;;;;;;;;;22.90;73.20;;;22.36;66.55;96488.44;5034861;28;19927;-83
2023/07/16 05:21:13;;;;;;;;;;;23.00;73.00;;;22.40;66.76;96494.16;5034089;28;19921;-84
2023/07/16 05:23:41;;;;;;;;;;;23.00;73.10;;;22.42;66.75;96493.81;5018453;28;20231;-84
2023/07/16 05:26:09;;;;;;;;;;;23.00;72.80;;;22.42;66.31;96494.66;5018430;28;19920;-83
2023/07/16 05:28:37;;;;;;;;;;;23.00;72.70;;;22.45;66.48;96498.72;5034726;28;19921;-84
2023/07/16 05:31:05;;;;;;;;;;;23.10;73.00;;;22.45;66.73;96493.97;5034102;28;19920;-84
2023/07/16 05:33:34;;;;;;;;;;;23.10;72.90;;;22.47;66.71;96490.84;5034736;28;20123;-83
2023/07/16 05:36:02;;;;;;;;;;;23.10;72.80;;;22.49;66.15;96500.50;5038009;28;19927;-84
2023/07/16 05:38:30;;;;;;;;;;;23.10;72.80;;;22.50;66.77;96496.53;5071081;28;19927;-83
2023/07/16 05:41:01;;;;;;;;;;;23.10;72.90;;;22.52;66.20;96499.00;5053881;28;19940;-84
2023/07/16 05:43:29;;;;;;;;;;;23.10;72.80;;;22.53;66.30;96500.63;5072310;28;19921;-83
2023/07/16 05:45:57;;;;;;;;;;;23.10;72.70;;;22.56;66.16;96501.94;5071181;28;20205;-84
2023/07/16 05:48:25;;;;;;;;;;;23.20;72.60;;;22.57;66.32;96506.34;5054527;28;19927;-83
2023/07/16 05:50:54;;;;;;;;;;;23.20;72.40;;;22.60;66.07;96511.22;5053574;28;19927;-83
2023/07/16 05:53:22;;;;;;;;;;;23.20;72.50;;;22.62;66.47;96504.16;5054299;28;19929;-83
2023/07/16 05:55:51;;;;;;;;;;;23.20;72.50;;;22.64;66.31;96513.03;5036839;28;20120;-83
2023/07/16 05:58:19;;;;;;;;;;;23.30;72.40;;;22.69;66.01;96506.41;5037584;28;19920;-83
2023/07/16 06:00:47;;;;;;;;;;;23.30;72.40;;;22.74;66.26;96510.97;5053691;28;19921;-83
2023/07/16 06:03:16;;;;;;;;;;;23.30;72.40;;;22.76;66.09;96512.25;5054053;28;20204;-83
2023/07/16 06:05:44;;;;;;;;;;;23.30;72.10;;;22.80;65.66;96509.56;5037412;28;20228;-83
2023/07/16 06:08:13;;;;;;;;;;;23.40;72.10;;;22.85;65.59;96522.53;5037510;28;19943;-83
2023/07/16 06:10:41;;;;;;;;;;;23.40;72.00;;;22.90;65.55;96513.91;5036881;28;19927;-83
2023/07/16 06:13:09;;;;;;;;;;;23.40;72.00;;;22.94;65.44;96515.66;5037667;28;19921;-83
2023/07/16 06:15:37;;;;;;;;;;;23.50;72.00;;;22.97;65.46;96512.19;5053823;28;19926;-83
2023/07/16 06:18:05;;;;;;;;;;;23.50;72.00;;;23.02;65.37;96510.38;5053849;28;19927;-83
2023/07/16 06:20:33;;;;;;;;;;;23.60;71.80;;;23.07;65.45;96508.16;5036479;28;19927;-83
2023/07/16 06:23:01;;;;;;;;;;;23.60;71.70;;;23.10;65.05;96509.44;5037519;28;19921;-83
2023/07/16 06:25:30;;;;;;;;;;;23.60;71.60;;;23.13;65.18;96505.97;5053703;28;19920;-83
2023/07/16 06:27:58;;;;;;;;;;;23.60;71.60;;;23.15;65.38;96498.06;5054024;28;19920;-84
2023/07/16 06:30:26;;;;;;;;;;;23.70;71.70;;;23.18;65.04;96511.31;5052911;28;19927;-84
2023/07/16 06:32:54;;;;;;;;;;;23.70;71.60;;;23.19;65.40;96504.56;5037129;28;19920;-83
2023/07/16 06:35:21;;;;;;;;;;;23.70;71.40;;;23.19;64.92;96501.78;5036958;28;19920;-84
2023/07/16 06:37:49;;;;;;;;;;;23.80;71.40;;;23.21;64.88;96505.06;5053652;28;19921;-84
2023/07/16 06:40:17;;;;;;;;;;;23.80;71.30;;;23.23;64.87;96507.53;5036154;28;19920;-83
2023/07/16 06:42:47;;;;;;;;;;;23.80;71.30;;;23.24;65.22;96512.78;5053376;28;20224;-84
2023/07/16 06:45:15;;;;;;;;;;;23.80;71.10;;;23.26;65.09;96507.66;5053566;28;19920;-84
2023/07/16 06:47:43;;;;;;;;;;;23.80;71.30;;;23.28;65.19;96510.09;5071363;28;20004;-84
2023/07/16 06:50:11;;;;;;;;;;;23.80;71.20;;;23.31;65.14;96497.41;5036170;28;20116;-84
2023/07/16 06:52:39;;;;;;;;;;;23.90;71.20;;;23.34;64.58;96505.09;5053389;28;19920;-84
2023/07/16 06:55:07;;;;;;;;;;;23.90;71.10;;;23.38;64.91;96511.63;5071283;28;19921;-84
2023/07/16 06:57:40;;;;;;;;;;;23.90;71.10;;;23.40;64.56;96509.31;5070164;28;19927;-83
2023/07/16 07:00:11;;;;;;;;;;;23.90;71.00;;;23.45;64.96;96506.28;5052568;28;20142;-83
2023/07/16 07:02:39;;;;;;;;;;;24.00;71.10;;;23.48;64.61;96511.16;5053485;28;19924;-84
2023/07/16 07:05:07;;;;;;;;;;;24.00;70.90;;;23.51;64.70;96516.06;5071152;28;19920;-84
2023/07/16 07:07:35;;;;;;;;;;;24.00;70.90;;;23.55;64.32;96518.97;5040197;28;19921;-84
2023/07/16 07:10:04;;;;;;;;;;;24.00;70.80;;;23.56;64.41;96513.03;5056278;28;19921;-84
2023/07/16 07:12:36;;;;;;;;;;;24.10;70.80;;;23.60;64.52;96518.75;5074514;28;19927;-84
2023/07/16 07:15:06;;;;;;;;;;;24.10;70.70;;;23.62;64.35;96516.44;5056749;28;20208;-84
2023/07/16 07:17:35;;;;;;;;;;;24.10;70.80;;;23.64;64.17;96522.47;5056507;28;20116;-83
2023/07/16 07:20:03;;;;;;;;;;;24.10;70.60;;;23.66;64.28;96519.34;5055966;28;19921;-84
2023/07/16 07:22:31;;;;;;;;;;;24.10;70.60;;;23.69;64.04;96516.66;5039998;28;20123;-84
2023/07/16 07:24:59;;;;;;;;;;;24.20;70.40;;;23.70;63.88;96514.66;5056528;28;19924;-84
2023/07/16 07:27:27;;;;;;;;;;;24.20;70.40;;;23.72;64.08;96509.56;5074352;28;19927;-84
2023/07/16 07:29:55;;;;;;;;;;;24.20;70.30;;;23.73;64.10;96506.44;5055821;28;19926;-84
2023/07/16 07:32:23;;;;;;;;;;;24.20;70.30;;;23.73;63.98;96502.78;5056410;28;20146;-84
2023/07/16 07:34:52;;;;;;;;;;;24.20;70.30;;;23.73;64.30;96498.03;5039871;28;19927;-84
2023/07/16 07:37:20;;;;;;;;;;;24.20;70.50;;;23.74;64.38;96498.84;5032801;28;19927;-84
2023/07/16 07:39:52;;;;;;;;;;;24.20;70.60;;;23.74;64.26;96499.66;5019378;28;19921;-84
2023/07/16 07:42:20;;;;;;;;;;;24.20;70.50;;;23.76;64.43;96493.72;5036432;28;19927;-84
2023/07/16 07:44:48;;;;;;;;;;;24.30;70.60;;;23.75;64.29;96494.88;5036509;28;20093;-84
2023/07/16 07:47:16;;;;;;;;;;;24.30;70.60;;;23.77;64.33;96500.94;5036512;28;19921;-84
2023/07/16 07:49:44;;;;;;;;;;;24.30;70.60;;;23.77;64.34;96498.16;5035576;28;19927;-84
2023/07/16 07:52:13;;;;;;;;;;;24.30;70.60;;;23.77;64.53;96495.34;5036074;28;19928;-84
2023/07/16 07:54:41;;;;;;;;;;;24.30;70.80;;;23.78;64.80;96494.19;5036212;28;19927;-84
2023/07/16 07:57:09;;;;;;;;;;;24.30;71.10;;;23.80;64.42;96489.06;5036037;28;19921;-84
2023/07/16 07:59:37;;;;;;;;;;;24.30;70.90;;;23.79;64.83;96493.03;5019029;28;19920;-84
2023/07/16 08:02:05;;;;;;;;;;;24.30;70.80;;;23.79;64.56;96504.22;5035810;28;19948;-84
2023/07/16 08:04:33;;;;;;;;;;;24.30;70.70;;;23.78;64.74;96497.00;5019662;28;19920;-83
2023/07/16 08:07:01;;;;;;;;;;;24.30;70.70;;;23.78;64.65;96497.00;5019300;28;20220;-84
2023/07/16 08:09:30;;;;;;;;;;;24.30;71.00;;;23.78;64.69;96488.59;5053442;28;19921;-84
2023/07/16 08:11:58;;;;;;;;;;;24.30;70.90;;;23.78;64.48;96497.00;5019492;28;19979;-84
2023/07/16 08:14:26;;;;;;;;;;;24.30;70.90;;;23.78;64.97;96497.00;5053681;28;19921;-83
2023/07/16 08:16:54;;;;;;;;;;;24.30;71.30;;;23.80;65.08;96494.66;5052093;28;19927;-83
2023/07/16 08:19:22;;;;;;;;;;;24.30;71.20;;;23.81;64.92;96492.66;5035308;28;19921;-84
2023/07/16 08:21:49;;;;;;;;;;;24.30;71.20;;;23.82;64.93;96500.69;5052846;28;19921;-83
2023/07/16 08:24:17;;;;;;;;;;;24.30;71.20;;;23.83;65.03;96505.13;5053590;28;20132;-84
2023/07/16 08:26:47;;;;;;;;;;;24.40;71.20;;;23.84;65.07;96505.94;5053350;28;20112;-84
2023/07/16 08:29:15;;;;;;;;;;;24.40;71.10;;;23.84;65.13;96501.16;5053370;28;19943;-84
2023/07/16 08:31:42;;;;;;;;;;;24.40;71.50;;;23.86;65.30;96509.22;5018568;28;20116;-84
2023/07/16 08:34:10;;;;;;;;;;;24.40;71.60;;;23.85;65.04;96508.38;5035589;28;19927;-84
2023/07/16 08:36:38;;;;;;;;;;;24.40;71.40;;;23.86;65.12;96514.81;5053018;28;19921;-84
2023/07/16 08:39:07;;;;;;;;;;;24.40;71.40;;;23.86;65.35;96514.81;5053120;28;19921;-84
2023/07/16 08:41:35;;;;;;;;;;;24.40;71.40;;;23.85;65.62;96519.56;5018002;28;19920;-84
2023/07/16 08:44:04;;;;;;;;;;;24.40;71.80;;;23.87;65.43;96517.25;5053282;28;19921;-84
2023/07/16 08:46:32;;;;;;;;;;;24.40;71.60;;;23.87;65.43;96517.25;5035422;28;19920;-84
2023/07/16 08:49:00;;;;;;;;;;;24.40;71.60;;;23.87;65.46;96514.44;5018937;28;19921;-83
2023/07/16 08:51:28;;;;;;;;;;;24.40;71.60;;;23.86;65.04;96504.44;5034768;28;19921;-84
2023/07/16 08:53:56;;;;;;;;;;;24.40;70.80;;;23.84;64.60;96512.34;5018835;28;19921;-84
2023/07/16 08:56:24;;;;;;;;;;;24.40;70.80;;;23.83;64.53;96510.72;5035194;28;19927;-84
2023/07/16 08:58:52;;;;;;;;;;;24.40;70.70;;;23.81;64.61;96507.47;5018766;28;19921;-84
2023/07/16 09:01:21;;;;;;;;;;;24.40;70.70;;;23.79;64.64;96501.41;5052088;28;19921;-83
2023/07/16 09:03:49;;;;;;;;;;;24.40;70.80;;;23.78;64.93;96507.34;5018785;28;19921;-84
2023/07/16 09:06:17;;;;;;;;;;;24.40;71.00;;;23.77;65.18;96509.34;5052776;28;19928;-83
2023/07/16 09:08:45;;;;;;;;;;;24.30;71.20;;;23.78;65.90;96507.34;5035307;28;19921;-83
2023/07/16 09:11:13;;;;;;;;;;;24.30;72.30;;;23.78;65.81;96497.00;5052196;28;19920;-83
2023/07/16 09:13:45;;;;;;;;;;;24.30;72.00;;;23.78;65.81;96497.00;5035062;28;20208;-83
2023/07/16 09:16:13;;;;;;;;;;;24.30;71.70;;;23.79;65.59;96501.41;5052768;28;19921;-83
2023/07/16 09:18:42;;;;;;;;;;;24.30;71.60;;;23.79;65.29;96495.81;5018474;28;19920;-83
2023/07/16 09:21:10;;;;;;;;;;;24.30;71.30;;;23.78;65.21;96505.38;5050730;28;19924;-83
2023/07/16 09:23:41;;;;;;;;;;;24.30;71.20;;;23.79;65.22;96498.63;5018543;28;19928;-83
2023/07/16 09:26:09;;;;;;;;;;;24.30;71.20;;;23.78;65.44;96505.38;5052641;28;19921;-83
2023/07/16 09:28:37;;;;;;;;;;;24.30;71.30;;;23.78;65.48;96496.16;5051826;28;20226;-84
2023/07/16 09:31:05;;;;;;;;;;;24.30;71.50;;;23.78;65.42;96499.78;5051119;28;19920;-83
2023/07/16 09:33:33;;;;;;;;;;;24.30;71.40;;;23.78;65.26;96502.56;5034917;28;20127;-84
2023/07/16 09:36:04;;;;;;;;;;;24.40;71.60;;;23.77;65.05;96484.16;5052431;28;19921;-84
2023/07/16 09:38:32;;;;;;;;;;;24.30;71.30;;;23.77;65.85;96500.94;5034707;28;19920;-84
2023/07/16 09:41:00;;;;;;;;;;;24.30;72.00;;;23.78;65.98;96491.41;5034028;28;19921;-84
2023/07/16 09:43:28;;;;;;;;;;;24.30;72.10;;;23.78;66.04;96491.41;5034339;28;19920;-84
2023/07/16 09:45:56;;;;;;;;;;;24.30;72.20;;;23.78;65.98;96497.00;5034533;28;19920;-84
2023/07/16 09:48:24;;;;;;;;;;;24.40;72.10;;;23.80;65.93;96491.88;5034558;28;19921;-84
2023/07/16 09:50:53;;;;;;;;;;;24.40;72.00;;;23.80;65.74;96483.47;5017436;28;19921;-84
2023/07/16 09:53:22;;;;;;;;;;;24.40;71.60;;;23.81;65.38;96490.69;5034428;28;19927;-84
2023/07/16 09:55:50;;;;;;;;;;;24.40;71.70;;;23.81;65.41;96487.91;5034671;28;19921;-84
2023/07/16 09:58:19;;;;;;;;;;;24.40;71.50;;;23.80;65.41;96489.06;5034348;28;19927;-84
2023/07/16 10:00:48;;;;;;;;;;;24.40;71.40;;;23.81;65.34;96482.31;5033501;28;19927;-84
2023/07/16 10:03:16;;;;;;;;;;;24.40;71.40;;;23.80;65.59;96480.69;5052025;28;19920;-84
2023/07/16 10:05:44;;;;;;;;;;;24.40;71.60;;;23.80;65.58;96477.88;5034313;28;20212;-84
2023/07/16 10:08:18;;;;;;;;;;;24.40;71.30;;;23.81;65.25;96473.09;5034398;28;19927;-84
2023/07/16 10:10:49;;;;;;;;;;;24.40;71.40;;;23.80;65.34;96466.69;5017098;28;20249;-84
2023/07/16 10:13:17;;;;;;;;;;;24.40;71.10;;;23.79;65.11;96473.47;5022271;28;20117;-84
2023/07/16 10:15:52;;;;;;;;;;;24.40;71.10;;;23.79;65.23;96469.84;5053947;28;19920;-84
2023/07/16 10:18:28;;;;;;;;;;;24.40;70.90;;;23.77;65.08;96463.78;5037251;28;19920;-84
2023/07/16 10:21:05;;;;;;;;;;;24.30;71.10;;;23.77;65.12;96467.41;5036444;28;19928;-84
2023/07/16 10:23:40;;;;;;;;;;;24.30;71.20;;;23.76;65.25;96460.19;5053662;28;19920;-84
2023/07/16 10:26:10;;;;;;;;;;;24.40;71.20;;;23.75;65.17;96466.94;5053882;28;19921;-84
2023/07/16 10:28:39;;;;;;;;;;;24.30;71.10;;;23.76;65.37;96460.19;5070415;28;19920;-84
2023/07/16 10:31:07;;;;;;;;;;;24.30;71.10;;;23.75;65.07;96458.53;5069980;28;19927;-84
2023/07/16 10:33:37;;;;;;;;;;;24.30;71.00;;;23.74;65.07;96463.34;5036999;28;19921;-84
2023/07/16 10:36:05;;;;;;;;;;;24.30;71.10;;;23.74;64.97;96468.91;5071524;28;19927;-84
2023/07/16 10:38:41;;;;;;;;;;;24.30;71.00;;;23.74;65.26;96456.91;5053423;28;20242;-84
2023/07/16 10:41:11;;;;;;;;;;;24.30;71.10;;;23.72;65.37;96453.66;5052592;28;19927;-84
2023/07/16 10:43:39;;;;;;;;;;;24.30;71.20;;;23.71;65.50;96454.81;5053562;28;19939;-84
2023/07/16 10:46:06;;;;;;;;;;;24.30;71.30;;;23.70;65.36;96453.19;5071524;28;20089;-84
2023/07/16 10:48:34;;;;;;;;;;;24.30;71.30;;;23.70;65.31;96456.81;5054688;28;19927;-85
2023/07/16 10:51:02;;;;;;;;;;;24.30;71.30;;;23.71;65.39;96449.22;5056264;28;19921;-85
2023/07/16 10:53:30;;;;;;;;;;;24.30;71.40;;;23.71;65.35;96447.25;5074003;28;19920;-84
2023/07/16 10:56:01;;;;;;;;;;;24.30;71.20;;;23.72;65.14;96453.66;5029774;28;19921;-85
2023/07/16 10:58:30;;;;;;;;;;;24.30;71.20;;;23.71;64.94;96454.81;5019740;28;19934;-85
2023/07/16 11:00:58;;;;;;;;;;;24.30;71.10;;;23.71;65.23;96452.00;5035613;28;19920;-84
2023/07/16 11:03:26;;;;;;;;;;;24.30;71.10;;;23.71;64.92;96446.44;5019578;28;20093;-84
2023/07/16 11:05:55;;;;;;;;;;;24.30;71.10;;;23.70;65.19;96450.38;5034890;28;20147;-83
2023/07/16 11:08:23;;;;;;;;;;;24.30;71.10;;;23.70;64.91;96453.19;5050916;28;19951;-83
2023/07/16 11:10:56;;;;;;;;;;;24.30;71.10;;;23.68;65.16;96453.53;5033169;28;20093;-84
2023/07/16 11:13:27;;;;;;;;;;;24.30;71.10;;;23.68;65.17;96447.16;5033492;28;19921;-83
2023/07/16 11:15:56;;;;;;;;;;;24.30;70.90;;;23.66;64.69;96444.69;5033486;28;19927;-83
2023/07/16 11:18:24;;;;;;;;;;;24.20;70.40;;;23.67;64.82;96442.72;5033013;28;19920;-83
2023/07/16 11:20:53;;;;;;;;;;;24.20;70.40;;;23.68;64.86;96449.94;5016737;28;19927;-83
2023/07/16 11:23:21;;;;;;;;;;;24.20;70.60;;;23.66;64.68;96438.28;5033335;28;19921;-83